sensor_id;sensor_type;location;lat;lon;timestamp;temperature;humidity
5134;DHT22;2585;48.696;10.066;2023-09-08T00:00:20;11.60;83.30
5134;DHT22;2585;48.696;10.066;2023-09-08T00:02:47;11.60;83.70
5134;DHT22;2585;48.696;10.066;2023-09-08T00:05:14;11.60;84.00
5134;DHT22;2585;48.696;10.066;2023-09-08T00:07:40;11.60;84.30
5134;DHT22;2585;48.696;10.066;2023-09-08T00:10:09;11.50;84.30
5134;DHT22;2585;48.696;10.066;2023-09-08T00:12:38;11.50;84.40
5134;DHT22;2585;48.696;10.066;2023-09-08T00:15:06;11.40;84.20
5134;DHT22;2585;48.696;10.066;2023-09-08T00:17:33;11.40;84.60
5134;DHT22;2585;48.696;10.066;2023-09-08T00:20:00;11.40;84.70
5134;DHT22;2585;48.696;10.066;2023-09-08T00:22:26;11.40;84.70
5134;DHT22;2585;48.696;10.066;2023-09-08T00:24:53;11.30;84.80
5134;DHT22;2585;48.696;10.066;2023-09-08T00:27:21;11.30;84.90
5134;DHT22;2585;48.696;10.066;2023-09-08T00:29:48;11.30;85.00
5134;DHT22;2585;48.696;10.066;2023-09-08T00:32:16;11.30;84.90
5134;DHT22;2585;48.696;10.066;2023-09-08T00:34:42;11.20;84.90
5134;DHT22;2585;48.696;10.066;2023-09-08T00:37:09;11.20;84.80
5134;DHT22;2585;48.696;10.066;2023-09-08T00:39:37;11.20;84.70
5134;DHT22;2585;48.696;10.066;2023-09-08T00:42:05;11.20;84.70
5134;DHT22;2585;48.696;10.066;2023-09-08T00:44:33;11.10;84.60
5134;DHT22;2585;48.696;10.066;2023-09-08T00:47:00;11.10;84.80
5134;DHT22;2585;48.696;10.066;2023-09-08T00:49:27;11.00;84.80
5134;DHT22;2585;48.696;10.066;2023-09-08T00:51:55;11.00;84.90
5134;DHT22;2585;48.696;10.066;2023-09-08T00:54:22;11.00;85.10
5134;DHT22;2585;48.696;10.066;2023-09-08T00:56:55;10.90;85.40
5134;DHT22;2585;48.696;10.066;2023-09-08T00:59:24;10.90;85.60
5134;DHT22;2585;48.696;10.066;2023-09-08T01:01:52;10.90;85.80
5134;DHT22;2585;48.696;10.066;2023-09-08T01:04:20;10.90;85.90
5134;DHT22;2585;48.696;10.066;2023-09-08T01:06:47;10.90;85.90
5134;DHT22;2585;48.696;10.066;2023-09-08T01:09:14;10.80;85.90
5134;DHT22;2585;48.696;10.066;2023-09-08T01:11:42;10.90;86.00
5134;DHT22;2585;48.696;10.066;2023-09-08T01:14:12;10.80;85.90
5134;DHT22;2585;48.696;10.066;2023-09-08T01:16:40;10.80;85.90
5134;DHT22;2585;48.696;10.066;2023-09-08T01:19:10;10.80;85.90
5134;DHT22;2585;48.696;10.066;2023-09-08T01:22:11;10.70;86.00
5134;DHT22;2585;48.696;10.066;2023-09-08T01:27:33;10.70;86.40
5134;DHT22;2585;48.696;10.066;2023-09-08T01:30:05;10.70;86.50
5134;DHT22;2585;48.696;10.066;2023-09-08T01:32:34;10.70;86.60
5134;DHT22;2585;48.696;10.066;2023-09-08T01:35:01;10.70;86.90
5134;DHT22;2585;48.696;10.066;2023-09-08T01:37:28;10.60;86.90
5134;DHT22;2585;48.696;10.066;2023-09-08T01:39:55;10.60;86.90
5134;DHT22;2585;48.696;10.066;2023-09-08T01:42:22;10.60;86.90
5134;DHT22;2585;48.696;10.066;2023-09-08T01:44:49;10.50;86.90
5134;DHT22;2585;48.696;10.066;2023-09-08T01:47:16;10.50;87.00
5134;DHT22;2585;48.696;10.066;2023-09-08T01:49:43;10.50;87.00
5134;DHT22;2585;48.696;10.066;2023-09-08T01:52:10;10.50;87.20
5134;DHT22;2585;48.696;10.066;2023-09-08T01:54:37;10.40;87.20
5134;DHT22;2585;48.696;10.066;2023-09-08T01:57:04;10.40;87.40
5134;DHT22;2585;48.696;10.066;2023-09-08T01:59:31;10.40;87.50
5134;DHT22;2585;48.696;10.066;2023-09-08T02:01:57;10.40;87.50
5134;DHT22;2585;48.696;10.066;2023-09-08T02:04:24;10.40;87.60
5134;DHT22;2585;48.696;10.066;2023-09-08T02:06:51;10.30;87.50
5134;DHT22;2585;48.696;10.066;2023-09-08T02:09:18;10.30;87.50
5134;DHT22;2585;48.696;10.066;2023-09-08T02:11:45;10.30;87.40
5134;DHT22;2585;48.696;10.066;2023-09-08T02:14:11;10.30;87.50
5134;DHT22;2585;48.696;10.066;2023-09-08T02:16:39;10.20;87.40
5134;DHT22;2585;48.696;10.066;2023-09-08T02:19:06;10.20;87.40
5134;DHT22;2585;48.696;10.066;2023-09-08T02:21:33;10.20;87.60
5134;DHT22;2585;48.696;10.066;2023-09-08T02:24:00;10.20;87.80
5134;DHT22;2585;48.696;10.066;2023-09-08T02:26:27;10.20;87.80
5134;DHT22;2585;48.696;10.066;2023-09-08T02:28:54;10.10;87.60
5134;DHT22;2585;48.696;10.066;2023-09-08T02:31:20;10.10;87.60
5134;DHT22;2585;48.696;10.066;2023-09-08T02:33:47;10.00;87.40
5134;DHT22;2585;48.696;10.066;2023-09-08T02:36:14;10.00;87.50
5134;DHT22;2585;48.696;10.066;2023-09-08T02:38:41;10.00;87.60
5134;DHT22;2585;48.696;10.066;2023-09-08T02:41:08;9.90;88.20
5134;DHT22;2585;48.696;10.066;2023-09-08T02:43:35;9.90;88.20
5134;DHT22;2585;48.696;10.066;2023-09-08T02:46:01;9.90;88.40
5134;DHT22;2585;48.696;10.066;2023-09-08T02:48:28;9.90;88.50
5134;DHT22;2585;48.696;10.066;2023-09-08T02:50:55;9.90;88.50
5134;DHT22;2585;48.696;10.066;2023-09-08T02:53:23;9.90;88.50
5134;DHT22;2585;48.696;10.066;2023-09-08T02:55:50;9.90;88.50
5134;DHT22;2585;48.696;10.066;2023-09-08T02:58:16;9.90;88.60
5134;DHT22;2585;48.696;10.066;2023-09-08T03:00:43;9.80;88.50
5134;DHT22;2585;48.696;10.066;2023-09-08T03:03:10;9.80;88.70
5134;DHT22;2585;48.696;10.066;2023-09-08T03:05:37;9.80;88.80
5134;DHT22;2585;48.696;10.066;2023-09-08T03:08:04;9.80;88.80
5134;DHT22;2585;48.696;10.066;2023-09-08T03:10:32;9.80;88.80
5134;DHT22;2585;48.696;10.066;2023-09-08T03:13:06;9.80;88.90
5134;DHT22;2585;48.696;10.066;2023-09-08T03:15:34;9.70;88.90
5134;DHT22;2585;48.696;10.066;2023-09-08T03:18:01;9.70;89.00
5134;DHT22;2585;48.696;10.066;2023-09-08T03:20:28;9.70;89.00
5134;DHT22;2585;48.696;10.066;2023-09-08T03:22:55;9.60;89.00
5134;DHT22;2585;48.696;10.066;2023-09-08T03:25:22;9.60;89.10
5134;DHT22;2585;48.696;10.066;2023-09-08T03:27:49;9.70;89.30
5134;DHT22;2585;48.696;10.066;2023-09-08T03:30:15;9.60;89.20
5134;DHT22;2585;48.696;10.066;2023-09-08T03:32:42;9.60;89.10
5134;DHT22;2585;48.696;10.066;2023-09-08T03:35:09;9.50;89.10
5134;DHT22;2585;48.696;10.066;2023-09-08T03:37:36;9.50;89.10
5134;DHT22;2585;48.696;10.066;2023-09-08T03:40:03;9.60;89.20
5134;DHT22;2585;48.696;10.066;2023-09-08T03:42:34;9.50;89.10
5134;DHT22;2585;48.696;10.066;2023-09-08T03:45:01;9.50;89.00
5134;DHT22;2585;48.696;10.066;2023-09-08T03:47:28;9.40;89.00
5134;DHT22;2585;48.696;10.066;2023-09-08T03:49:55;9.40;89.00
5134;DHT22;2585;48.696;10.066;2023-09-08T03:52:22;9.50;89.10
5134;DHT22;2585;48.696;10.066;2023-09-08T03:54:49;9.40;89.00
5134;DHT22;2585;48.696;10.066;2023-09-08T03:57:16;9.40;89.00
5134;DHT22;2585;48.696;10.066;2023-09-08T03:59:43;9.40;89.10
5134;DHT22;2585;48.696;10.066;2023-09-08T04:02:10;9.30;89.10
5134;DHT22;2585;48.696;10.066;2023-09-08T04:04:37;9.30;89.10
5134;DHT22;2585;48.696;10.066;2023-09-08T04:07:03;9.30;89.40
5134;DHT22;2585;48.696;10.066;2023-09-08T04:09:30;9.30;89.50
5134;DHT22;2585;48.696;10.066;2023-09-08T04:11:58;9.30;89.60
5134;DHT22;2585;48.696;10.066;2023-09-08T04:14:25;9.30;89.60
5134;DHT22;2585;48.696;10.066;2023-09-08T04:16:54;9.30;89.60
5134;DHT22;2585;48.696;10.066;2023-09-08T04:19:20;9.30;89.60
5134;DHT22;2585;48.696;10.066;2023-09-08T04:21:47;9.30;89.60
5134;DHT22;2585;48.696;10.066;2023-09-08T04:24:14;9.20;89.40
5134;DHT22;2585;48.696;10.066;2023-09-08T04:26:41;9.10;89.50
5134;DHT22;2585;48.696;10.066;2023-09-08T04:29:07;9.20;89.60
5134;DHT22;2585;48.696;10.066;2023-09-08T04:31:34;9.20;89.70
5134;DHT22;2585;48.696;10.066;2023-09-08T04:34:01;9.10;89.60
5134;DHT22;2585;48.696;10.066;2023-09-08T04:36:28;9.10;89.60
5134;DHT22;2585;48.696;10.066;2023-09-08T04:38:57;9.10;89.60
5134;DHT22;2585;48.696;10.066;2023-09-08T04:41:23;9.10;89.60
5134;DHT22;2585;48.696;10.066;2023-09-08T04:43:50;9.10;89.60
5134;DHT22;2585;48.696;10.066;2023-09-08T04:46:17;9.10;89.60
5134;DHT22;2585;48.696;10.066;2023-09-08T04:48:44;9.00;89.50
5134;DHT22;2585;48.696;10.066;2023-09-08T04:51:11;9.00;89.50
5134;DHT22;2585;48.696;10.066;2023-09-08T04:53:38;9.00;89.70
5134;DHT22;2585;48.696;10.066;2023-09-08T04:56:05;9.00;89.80
5134;DHT22;2585;48.696;10.066;2023-09-08T04:58:32;9.00;89.90
5134;DHT22;2585;48.696;10.066;2023-09-08T05:00:59;9.00;90.00
5134;DHT22;2585;48.696;10.066;2023-09-08T05:03:26;9.00;90.00
5134;DHT22;2585;48.696;10.066;2023-09-08T05:05:53;9.10;90.10
5134;DHT22;2585;48.696;10.066;2023-09-08T05:08:20;9.10;90.20
5134;DHT22;2585;48.696;10.066;2023-09-08T05:10:46;9.10;90.20
5134;DHT22;2585;48.696;10.066;2023-09-08T05:13:13;9.20;90.30
5134;DHT22;2585;48.696;10.066;2023-09-08T05:15:57;9.20;90.30
5134;DHT22;2585;48.696;10.066;2023-09-08T05:18:39;9.20;90.40
5134;DHT22;2585;48.696;10.066;2023-09-08T05:21:06;9.30;90.40
5134;DHT22;2585;48.696;10.066;2023-09-08T05:23:33;9.40;90.50
5134;DHT22;2585;48.696;10.066;2023-09-08T05:26:00;9.40;90.50
5134;DHT22;2585;48.696;10.066;2023-09-08T05:28:27;9.40;90.60
5134;DHT22;2585;48.696;10.066;2023-09-08T05:30:54;9.50;90.60
5134;DHT22;2585;48.696;10.066;2023-09-08T05:33:21;9.50;90.60
5134;DHT22;2585;48.696;10.066;2023-09-08T05:35:48;9.50;90.60
5134;DHT22;2585;48.696;10.066;2023-09-08T05:38:15;9.50;90.60
5134;DHT22;2585;48.696;10.066;2023-09-08T05:40:42;9.50;90.70
5134;DHT22;2585;48.696;10.066;2023-09-08T05:43:09;9.60;90.70
5134;DHT22;2585;48.696;10.066;2023-09-08T05:45:36;9.70;90.80
5134;DHT22;2585;48.696;10.066;2023-09-08T05:48:03;9.70;90.90
5134;DHT22;2585;48.696;10.066;2023-09-08T05:50:30;9.70;91.00
5134;DHT22;2585;48.696;10.066;2023-09-08T05:52:57;9.80;91.10
5134;DHT22;2585;48.696;10.066;2023-09-08T05:55:24;9.80;91.10
5134;DHT22;2585;48.696;10.066;2023-09-08T05:57:51;9.90;91.20
5134;DHT22;2585;48.696;10.066;2023-09-08T06:00:18;9.90;91.20
5134;DHT22;2585;48.696;10.066;2023-09-08T06:02:45;10.00;91.00
5134;DHT22;2585;48.696;10.066;2023-09-08T06:05:11;10.10;91.10
5134;DHT22;2585;48.696;10.066;2023-09-08T06:07:38;10.20;91.20
5134;DHT22;2585;48.696;10.066;2023-09-08T06:10:11;10.30;91.30
5134;DHT22;2585;48.696;10.066;2023-09-08T06:12:38;10.40;91.40
5134;DHT22;2585;48.696;10.066;2023-09-08T06:15:05;10.60;91.50
5134;DHT22;2585;48.696;10.066;2023-09-08T06:17:33;10.70;91.50
5134;DHT22;2585;48.696;10.066;2023-09-08T06:19:59;10.70;91.50
5134;DHT22;2585;48.696;10.066;2023-09-08T06:22:26;10.80;91.60
5134;DHT22;2585;48.696;10.066;2023-09-08T06:24:53;10.90;91.60
5134;DHT22;2585;48.696;10.066;2023-09-08T06:27:20;11.00;91.70
5134;DHT22;2585;48.696;10.066;2023-09-08T06:29:47;11.10;91.70
5134;DHT22;2585;48.696;10.066;2023-09-08T06:32:14;11.20;91.70
5134;DHT22;2585;48.696;10.066;2023-09-08T06:34:41;11.40;91.80
5134;DHT22;2585;48.696;10.066;2023-09-08T06:37:10;11.60;91.80
5134;DHT22;2585;48.696;10.066;2023-09-08T06:39:37;11.70;91.90
5134;DHT22;2585;48.696;10.066;2023-09-08T06:42:04;12.00;92.00
5134;DHT22;2585;48.696;10.066;2023-09-08T06:44:30;12.20;92.00
5134;DHT22;2585;48.696;10.066;2023-09-08T06:46:57;12.40;92.00
5134;DHT22;2585;48.696;10.066;2023-09-08T06:49:24;12.70;92.10
5134;DHT22;2585;48.696;10.066;2023-09-08T06:51:51;12.90;92.00
5134;DHT22;2585;48.696;10.066;2023-09-08T06:54:18;13.20;91.90
5134;DHT22;2585;48.696;10.066;2023-09-08T06:56:45;13.50;91.90
5134;DHT22;2585;48.696;10.066;2023-09-08T06:59:12;13.80;92.00
5134;DHT22;2585;48.696;10.066;2023-09-08T07:01:39;14.10;91.90
5134;DHT22;2585;48.696;10.066;2023-09-08T07:04:06;14.40;91.80
5134;DHT22;2585;48.696;10.066;2023-09-08T07:06:33;14.60;91.70
5134;DHT22;2585;48.696;10.066;2023-09-08T07:09:01;15.00;91.40
5134;DHT22;2585;48.696;10.066;2023-09-08T07:11:28;15.30;90.90
5134;DHT22;2585;48.696;10.066;2023-09-08T07:13:57;15.50;90.70
5134;DHT22;2585;48.696;10.066;2023-09-08T07:16:24;15.90;90.50
5134;DHT22;2585;48.696;10.066;2023-09-08T07:18:51;16.10;87.10
5134;DHT22;2585;48.696;10.066;2023-09-08T07:21:17;16.40;77.70
5134;DHT22;2585;48.696;10.066;2023-09-08T07:23:44;16.80;74.30
5134;DHT22;2585;48.696;10.066;2023-09-08T07:26:11;17.00;54.60
5134;DHT22;2585;48.696;10.066;2023-09-08T07:28:38;17.10;1.00
5134;DHT22;2585;48.696;10.066;2023-09-08T07:31:06;17.40;1.00
5134;DHT22;2585;48.696;10.066;2023-09-08T07:33:35;17.80;1.00
5134;DHT22;2585;48.696;10.066;2023-09-08T07:36:07;18.00;83.60
5134;DHT22;2585;48.696;10.066;2023-09-08T07:38:35;18.20;1.00
5134;DHT22;2585;48.696;10.066;2023-09-08T07:41:02;18.50;78.40
5134;DHT22;2585;48.696;10.066;2023-09-08T07:43:29;18.50;1.00
5134;DHT22;2585;48.696;10.066;2023-09-08T07:45:56;18.70;1.00
5134;DHT22;2585;48.696;10.066;2023-09-08T07:48:23;18.70;79.10
5134;DHT22;2585;48.696;10.066;2023-09-08T07:50:50;18.60;1.00
5134;DHT22;2585;48.696;10.066;2023-09-08T07:53:17;18.80;39.50
5134;DHT22;2585;48.696;10.066;2023-09-08T07:55:43;19.00;1.00
5134;DHT22;2585;48.696;10.066;2023-09-08T07:58:10;19.30;1.00
5134;DHT22;2585;48.696;10.066;2023-09-08T08:00:37;19.50;1.00
5134;DHT22;2585;48.696;10.066;2023-09-08T08:03:04;19.70;1.00
5134;DHT22;2585;48.696;10.066;2023-09-08T08:05:32;19.70;64.20
5134;DHT22;2585;48.696;10.066;2023-09-08T08:07:59;19.60;1.00
5134;DHT22;2585;48.696;10.066;2023-09-08T08:10:26;19.70;1.00
5134;DHT22;2585;48.696;10.066;2023-09-08T08:12:53;20.00;31.10
5134;DHT22;2585;48.696;10.066;2023-09-08T08:15:20;19.90;68.50
5134;DHT22;2585;48.696;10.066;2023-09-08T08:17:50;20.00;1.00
5134;DHT22;2585;48.696;10.066;2023-09-08T08:20:17;20.10;80.60
5134;DHT22;2585;48.696;10.066;2023-09-08T08:22:45;20.40;83.80
5134;DHT22;2585;48.696;10.066;2023-09-08T08:25:12;20.60;90.80
5134;DHT22;2585;48.696;10.066;2023-09-08T08:27:40;20.90;1.00
5134;DHT22;2585;48.696;10.066;2023-09-08T08:30:07;21.10;1.00
5134;DHT22;2585;48.696;10.066;2023-09-08T08:32:34;21.20;21.90
5134;DHT22;2585;48.696;10.066;2023-09-08T08:35:01;21.20;1.00
5134;DHT22;2585;48.696;10.066;2023-09-08T08:37:28;21.20;1.00
5134;DHT22;2585;48.696;10.066;2023-09-08T08:39:55;21.40;91.00
5134;DHT22;2585;48.696;10.066;2023-09-08T08:42:22;21.60;66.60
5134;DHT22;2585;48.696;10.066;2023-09-08T08:44:49;21.80;1.00
5134;DHT22;2585;48.696;10.066;2023-09-08T08:47:17;22.00;1.00
5134;DHT22;2585;48.696;10.066;2023-09-08T08:49:46;22.00;1.00
5134;DHT22;2585;48.696;10.066;2023-09-08T08:52:15;22.00;93.80
5134;DHT22;2585;48.696;10.066;2023-09-08T08:54:44;22.30;90.70
5134;DHT22;2585;48.696;10.066;2023-09-08T08:57:12;22.70;83.10
5134;DHT22;2585;48.696;10.066;2023-09-08T08:59:40;23.30;74.10
5134;DHT22;2585;48.696;10.066;2023-09-08T09:02:09;23.50;17.70
5134;DHT22;2585;48.696;10.066;2023-09-08T09:04:38;23.50;1.00
5134;DHT22;2585;48.696;10.066;2023-09-08T09:07:07;23.40;1.00
5134;DHT22;2585;48.696;10.066;2023-09-08T09:09:34;24.10;1.00
5134;DHT22;2585;48.696;10.066;2023-09-08T09:12:01;24.10;81.70
5134;DHT22;2585;48.696;10.066;2023-09-08T09:14:33;24.30;77.60
5134;DHT22;2585;48.696;10.066;2023-09-08T09:17:01;24.70;73.30
5134;DHT22;2585;48.696;10.066;2023-09-08T09:19:30;25.10;73.40
5134;DHT22;2585;48.696;10.066;2023-09-08T09:21:59;24.80;15.50
5134;DHT22;2585;48.696;10.066;2023-09-08T09:27:12;25.00;1.00
5134;DHT22;2585;48.696;10.066;2023-09-08T09:29:46;24.80;1.00
5134;DHT22;2585;48.696;10.066;2023-09-08T09:32:14;25.40;1.00
5134;DHT22;2585;48.696;10.066;2023-09-08T09:34:52;25.90;1.00
5134;DHT22;2585;48.696;10.066;2023-09-08T09:37:23;26.50;1.00
5134;DHT22;2585;48.696;10.066;2023-09-08T09:39:52;26.10;95.70
5134;DHT22;2585;48.696;10.066;2023-09-08T09:42:20;26.20;1.00
5134;DHT22;2585;48.696;10.066;2023-09-08T09:44:48;27.00;1.00
5134;DHT22;2585;48.696;10.066;2023-09-08T09:47:16;27.30;92.40
5134;DHT22;2585;48.696;10.066;2023-09-08T09:49:47;27.20;86.30
5134;DHT22;2585;48.696;10.066;2023-09-08T09:52:21;26.90;80.30
5134;DHT22;2585;48.696;10.066;2023-09-08T09:54:49;27.00;77.70
5134;DHT22;2585;48.696;10.066;2023-09-08T09:57:22;27.50;78.40
5134;DHT22;2585;48.696;10.066;2023-09-08T09:59:49;27.10;68.50
5134;DHT22;2585;48.696;10.066;2023-09-08T10:02:18;27.40;65.80
5134;DHT22;2585;48.696;10.066;2023-09-08T10:04:49;27.80;65.70
5134;DHT22;2585;48.696;10.066;2023-09-08T10:07:18;28.10;60.60
5134;DHT22;2585;48.696;10.066;2023-09-08T10:09:45;27.80;38.40
5134;DHT22;2585;48.696;10.066;2023-09-08T10:12:14;27.30;25.10
5134;DHT22;2585;48.696;10.066;2023-09-08T10:14:45;27.40;20.60
5134;DHT22;2585;48.696;10.066;2023-09-08T10:17:15;27.80;29.00
5134;DHT22;2585;48.696;10.066;2023-09-08T10:19:46;28.00;20.80
5134;DHT22;2585;48.696;10.066;2023-09-08T10:22:20;28.10;8.40
5134;DHT22;2585;48.696;10.066;2023-09-08T10:24:50;27.80;1.00
5134;DHT22;2585;48.696;10.066;2023-09-08T10:27:21;27.50;1.00
5134;DHT22;2585;48.696;10.066;2023-09-08T10:29:51;27.90;1.00
5134;DHT22;2585;48.696;10.066;2023-09-08T10:32:20;28.70;1.00
5134;DHT22;2585;48.696;10.066;2023-09-08T10:34:48;29.30;1.00
5134;DHT22;2585;48.696;10.066;2023-09-08T10:37:23;29.00;1.00
5134;DHT22;2585;48.696;10.066;2023-09-08T10:39:56;29.00;1.00
5134;DHT22;2585;48.696;10.066;2023-09-08T10:42:43;28.50;1.00
5134;DHT22;2585;48.696;10.066;2023-09-08T10:45:16;28.70;1.00
5134;DHT22;2585;48.696;10.066;2023-09-08T10:50:19;29.60;1.00
5134;DHT22;2585;48.696;10.066;2023-09-08T10:53:12;29.50;1.00
5134;DHT22;2585;48.696;10.066;2023-09-08T10:55:48;30.30;1.00
5134;DHT22;2585;48.696;10.066;2023-09-08T10:58:38;30.60;1.00
5134;DHT22;2585;48.696;10.066;2023-09-08T11:01:07;29.80;1.00
5134;DHT22;2585;48.696;10.066;2023-09-08T11:06:05;30.10;1.00
5134;DHT22;2585;48.696;10.066;2023-09-08T11:08:41;30.20;1.00
5134;DHT22;2585;48.696;10.066;2023-09-08T11:11:13;29.70;1.00
5134;DHT22;2585;48.696;10.066;2023-09-08T11:13:40;29.70;1.00
5134;DHT22;2585;48.696;10.066;2023-09-08T11:16:08;29.70;95.90
5134;DHT22;2585;48.696;10.066;2023-09-08T11:18:35;30.00;96.00
5134;DHT22;2585;48.696;10.066;2023-09-08T11:21:07;30.70;96.40
5134;DHT22;2585;48.696;10.066;2023-09-08T11:23:34;31.30;95.60
5134;DHT22;2585;48.696;10.066;2023-09-08T11:26:01;31.60;94.70
5134;DHT22;2585;48.696;10.066;2023-09-08T11:28:28;31.90;94.00
5134;DHT22;2585;48.696;10.066;2023-09-08T11:30:55;31.60;92.90
5134;DHT22;2585;48.696;10.066;2023-09-08T11:33:23;31.90;93.50
5134;DHT22;2585;48.696;10.066;2023-09-08T11:35:53;31.70;91.80
5134;DHT22;2585;48.696;10.066;2023-09-08T11:38:25;31.90;91.50
5134;DHT22;2585;48.696;10.066;2023-09-08T11:40:54;31.60;90.90
5134;DHT22;2585;48.696;10.066;2023-09-08T11:43:25;31.40;90.20
5134;DHT22;2585;48.696;10.066;2023-09-08T11:45:52;31.90;91.10
5134;DHT22;2585;48.696;10.066;2023-09-08T11:48:19;31.90;87.90
5134;DHT22;2585;48.696;10.066;2023-09-08T11:50:46;32.00;87.20
5134;DHT22;2585;48.696;10.066;2023-09-08T11:53:19;32.40;87.50
5134;DHT22;2585;48.696;10.066;2023-09-08T11:55:48;32.10;86.50
5134;DHT22;2585;48.696;10.066;2023-09-08T11:58:17;32.40;86.60
5134;DHT22;2585;48.696;10.066;2023-09-08T12:00:45;32.10;84.20
5134;DHT22;2585;48.696;10.066;2023-09-08T12:03:15;32.00;84.00
5134;DHT22;2585;48.696;10.066;2023-09-08T12:05:51;32.30;83.00
5134;DHT22;2585;48.696;10.066;2023-09-08T12:08:18;32.90;83.40
5134;DHT22;2585;48.696;10.066;2023-09-08T12:10:45;32.70;81.40
5134;DHT22;2585;48.696;10.066;2023-09-08T12:13:12;32.10;80.90
5134;DHT22;2585;48.696;10.066;2023-09-08T12:15:41;31.30;78.90
5134;DHT22;2585;48.696;10.066;2023-09-08T12:18:14;30.90;79.30
5134;DHT22;2585;48.696;10.066;2023-09-08T12:20:44;31.60;80.90
5134;DHT22;2585;48.696;10.066;2023-09-08T12:23:21;31.90;79.70
5134;DHT22;2585;48.696;10.066;2023-09-08T12:25:50;32.60;80.40
5134;DHT22;2585;48.696;10.066;2023-09-08T12:28:21;32.70;79.10
5134;DHT22;2585;48.696;10.066;2023-09-08T12:30:49;33.20;79.20
5134;DHT22;2585;48.696;10.066;2023-09-08T12:33:17;33.10;76.80
5134;DHT22;2585;48.696;10.066;2023-09-08T12:35:47;32.60;77.10
5134;DHT22;2585;48.696;10.066;2023-09-08T12:38:19;32.10;75.30
5134;DHT22;2585;48.696;10.066;2023-09-08T12:40:47;32.10;75.40
5134;DHT22;2585;48.696;10.066;2023-09-08T12:43:14;32.10;74.70
5134;DHT22;2585;48.696;10.066;2023-09-08T12:45:53;32.30;75.00
5134;DHT22;2585;48.696;10.066;2023-09-08T12:48:20;32.60;74.90
5134;DHT22;2585;48.696;10.066;2023-09-08T12:50:48;33.10;75.80
5134;DHT22;2585;48.696;10.066;2023-09-08T12:53:16;32.70;73.30
5134;DHT22;2585;48.696;10.066;2023-09-08T12:55:47;32.20;72.40
5134;DHT22;2585;48.696;10.066;2023-09-08T12:58:14;32.10;72.10
5134;DHT22;2585;48.696;10.066;2023-09-08T13:00:42;31.90;72.50
5134;DHT22;2585;48.696;10.066;2023-09-08T13:03:09;32.10;74.70
5134;DHT22;2585;48.696;10.066;2023-09-08T13:05:36;32.30;72.90
5134;DHT22;2585;48.696;10.066;2023-09-08T13:08:06;32.80;73.10
5134;DHT22;2585;48.696;10.066;2023-09-08T13:10:32;33.00;72.60
5134;DHT22;2585;48.696;10.066;2023-09-08T13:13:00;32.70;70.60
5134;DHT22;2585;48.696;10.066;2023-09-08T13:15:27;32.50;70.50
5134;DHT22;2585;48.696;10.066;2023-09-08T13:17:54;32.00;71.70
5134;DHT22;2585;48.696;10.066;2023-09-08T13:20:21;32.20;70.50
5134;DHT22;2585;48.696;10.066;2023-09-08T13:22:48;32.20;70.10
5134;DHT22;2585;48.696;10.066;2023-09-08T13:25:15;32.40;69.20
5134;DHT22;2585;48.696;10.066;2023-09-08T13:27:42;31.70;68.80
5134;DHT22;2585;48.696;10.066;2023-09-08T13:30:10;32.20;68.70
5134;DHT22;2585;48.696;10.066;2023-09-08T13:32:37;32.10;68.50
5134;DHT22;2585;48.696;10.066;2023-09-08T13:35:05;31.30;67.10
5134;DHT22;2585;48.696;10.066;2023-09-08T13:37:32;31.50;67.80
5134;DHT22;2585;48.696;10.066;2023-09-08T13:40:02;31.50;67.40
5134;DHT22;2585;48.696;10.066;2023-09-08T13:42:31;32.00;67.60
5134;DHT22;2585;48.696;10.066;2023-09-08T13:44:58;32.10;67.20
5134;DHT22;2585;48.696;10.066;2023-09-08T13:47:25;32.20;67.70
5134;DHT22;2585;48.696;10.066;2023-09-08T13:49:53;32.70;67.90
5134;DHT22;2585;48.696;10.066;2023-09-08T13:52:23;32.50;66.90
5134;DHT22;2585;48.696;10.066;2023-09-08T13:54:56;32.30;66.30
5134;DHT22;2585;48.696;10.066;2023-09-08T13:57:25;32.60;66.40
5134;DHT22;2585;48.696;10.066;2023-09-08T13:59:54;32.40;66.60
5134;DHT22;2585;48.696;10.066;2023-09-08T14:02:23;32.30;67.10
5134;DHT22;2585;48.696;10.066;2023-09-08T14:04:53;32.60;66.50
5134;DHT22;2585;48.696;10.066;2023-09-08T14:07:22;32.50;65.90
5134;DHT22;2585;48.696;10.066;2023-09-08T14:09:58;32.30;66.60
5134;DHT22;2585;48.696;10.066;2023-09-08T14:12:41;32.20;64.90
5134;DHT22;2585;48.696;10.066;2023-09-08T14:15:08;31.90;65.00
5134;DHT22;2585;48.696;10.066;2023-09-08T14:17:35;31.80;64.60
5134;DHT22;2585;48.696;10.066;2023-09-08T14:20:02;31.10;64.50
5134;DHT22;2585;48.696;10.066;2023-09-08T14:22:30;30.90;64.90
5134;DHT22;2585;48.696;10.066;2023-09-08T14:24:57;31.30;65.60
5134;DHT22;2585;48.696;10.066;2023-09-08T14:27:24;30.80;64.90
5134;DHT22;2585;48.696;10.066;2023-09-08T14:29:50;30.60;65.00
5134;DHT22;2585;48.696;10.066;2023-09-08T14:32:17;30.20;65.10
5134;DHT22;2585;48.696;10.066;2023-09-08T14:34:44;30.50;65.60
5134;DHT22;2585;48.696;10.066;2023-09-08T14:37:11;30.40;65.40
5134;DHT22;2585;48.696;10.066;2023-09-08T14:39:38;30.10;65.60
5134;DHT22;2585;48.696;10.066;2023-09-08T14:42:05;30.00;65.50
5134;DHT22;2585;48.696;10.066;2023-09-08T14:44:32;29.60;65.30
5134;DHT22;2585;48.696;10.066;2023-09-08T14:46:59;29.40;66.10
5134;DHT22;2585;48.696;10.066;2023-09-08T14:49:26;29.60;66.50
5134;DHT22;2585;48.696;10.066;2023-09-08T14:51:52;29.40;66.10
5134;DHT22;2585;48.696;10.066;2023-09-08T14:54:19;29.30;66.10
5134;DHT22;2585;48.696;10.066;2023-09-08T14:56:46;29.10;65.80
5134;DHT22;2585;48.696;10.066;2023-09-08T14:59:13;29.00;66.20
5134;DHT22;2585;48.696;10.066;2023-09-08T15:01:40;28.80;66.30
5134;DHT22;2585;48.696;10.066;2023-09-08T15:04:07;28.50;66.30
5134;DHT22;2585;48.696;10.066;2023-09-08T15:06:34;28.40;67.30
5134;DHT22;2585;48.696;10.066;2023-09-08T15:09:01;28.30;68.30
5134;DHT22;2585;48.696;10.066;2023-09-08T15:11:28;28.20;67.40
5134;DHT22;2585;48.696;10.066;2023-09-08T15:13:55;28.10;67.40
5134;DHT22;2585;48.696;10.066;2023-09-08T15:16:22;28.20;68.00
5134;DHT22;2585;48.696;10.066;2023-09-08T15:18:50;28.20;68.50
5134;DHT22;2585;48.696;10.066;2023-09-08T15:21:16;28.00;69.50
5134;DHT22;2585;48.696;10.066;2023-09-08T15:23:44;28.00;70.70
5134;DHT22;2585;48.696;10.066;2023-09-08T15:26:11;28.00;69.30
5134;DHT22;2585;48.696;10.066;2023-09-08T15:28:39;28.00;69.00
5134;DHT22;2585;48.696;10.066;2023-09-08T15:31:05;27.80;70.00
5134;DHT22;2585;48.696;10.066;2023-09-08T15:33:33;27.60;70.60
5134;DHT22;2585;48.696;10.066;2023-09-08T15:36:00;27.50;70.90
5134;DHT22;2585;48.696;10.066;2023-09-08T15:38:27;27.50;71.10
5134;DHT22;2585;48.696;10.066;2023-09-08T15:43:40;27.30;71.10
5134;DHT22;2585;48.696;10.066;2023-09-08T15:46:07;27.10;72.10
5134;DHT22;2585;48.696;10.066;2023-09-08T15:48:35;27.10;73.30
5134;DHT22;2585;48.696;10.066;2023-09-08T15:51:03;27.00;73.10
5134;DHT22;2585;48.696;10.066;2023-09-08T15:53:30;26.90;74.20
5134;DHT22;2585;48.696;10.066;2023-09-08T15:55:58;26.80;75.60
5134;DHT22;2585;48.696;10.066;2023-09-08T15:58:25;26.60;77.00
5134;DHT22;2585;48.696;10.066;2023-09-08T16:00:52;26.60;77.90
5134;DHT22;2585;48.696;10.066;2023-09-08T16:03:19;26.60;78.80
5134;DHT22;2585;48.696;10.066;2023-09-08T16:05:46;26.50;78.70
5134;DHT22;2585;48.696;10.066;2023-09-08T16:08:13;26.40;80.20
5134;DHT22;2585;48.696;10.066;2023-09-08T16:10:40;26.40;81.40